createdAt,value
2022-11-16T00:01:14.202Z,96650.53
2022-11-16T00:03:42.216Z,96647.47
2022-11-16T00:06:10.963Z,96638.84
2022-11-16T00:08:39.430Z,96635.75
2022-11-16T00:11:08.585Z,96630.44
2022-11-16T00:13:37.123Z,96623.84
2022-11-16T00:16:06.357Z,96622.03
2022-11-16T00:18:35.960Z,96616.91
2022-11-16T00:21:05.781Z,96615.25
2022-11-16T00:23:35.867Z,96623.47
2022-11-16T00:26:05.039Z,96620.59
2022-11-16T00:28:33.190Z,96622.22
2022-11-16T00:31:01.024Z,96626.72
2022-11-16T00:33:28.932Z,96632.72
2022-11-16T00:35:58.011Z,96628.81
2022-11-16T00:38:25.446Z,96632.28
2022-11-16T00:40:52.893Z,96631.69
2022-11-16T00:43:20.401Z,96637.84
2022-11-16T00:45:47.835Z,96638.44
2022-11-16T00:48:15.256Z,96638.84
2022-11-16T00:50:42.717Z,96639.28
2022-11-16T00:53:14.491Z,96643.16
2022-11-16T00:55:41.965Z,96638.63
2022-11-16T00:58:09.401Z,96630.22
2022-11-16T01:00:37.228Z,96635.56
2022-11-16T01:03:05.152Z,96634.31
2022-11-16T01:05:33.167Z,96634.97
2022-11-16T01:08:01.101Z,96638.84
2022-11-16T01:10:30.387Z,96636.78
2022-11-16T01:12:57.102Z,96637.19
2022-11-16T01:15:26.898Z,96642.72
2022-11-16T01:17:56.163Z,96635.75
2022-11-16T01:20:26.147Z,96647.88
2022-11-16T01:22:54.704Z,96644.81
2022-11-16T01:25:22.611Z,96646.44
2022-11-16T01:27:51.411Z,96644.78
2022-11-16T01:30:19.048Z,96638.63
2022-11-16T01:32:46.571Z,96637.41
2022-11-16T01:35:17.856Z,96633.53
2022-11-16T01:37:45.609Z,96635.75
2022-11-16T01:40:14.287Z,96628.59
2022-11-16T01:42:42.183Z,96630.44
2022-11-16T01:45:22.440Z,96626.13
2022-11-16T01:47:50.068Z,96625.72
2022-11-16T01:50:19.784Z,96617.94
2022-11-16T01:52:55.462Z,96622.22
2022-11-16T01:55:24.063Z,96617.09
2022-11-16T01:57:51.912Z,96620.16
2022-11-16T02:00:20.872Z,96616.28
2022-11-16T02:02:48.291Z,96620.97
2022-11-16T02:05:19.513Z,96615.66
2022-11-16T02:08:29.207Z,96613.59
2022-11-16T02:11:07.683Z,96609.50
2022-11-16T02:13:46.600Z,96606.19
2022-11-16T02:16:28.063Z,96613.59
2022-11-16T02:19:06.548Z,96614.81
2022-11-16T02:21:42.060Z,96612.38
2022-11-16T02:24:37.480Z,96605.19
2022-11-16T02:27:30.744Z,96601.88
2022-11-16T02:29:59.903Z,96608.69
2022-11-16T02:32:32.439Z,96600.91
2022-11-16T02:35:07.260Z,96591.84
2022-11-16T02:37:38.978Z,96594.72
2022-11-16T02:40:12.163Z,96587.34
2022-11-16T02:42:44.827Z,96590.41
2022-11-16T02:45:19.237Z,96590.63
2022-11-16T02:47:49.072Z,96590.81
2022-11-16T02:50:21.233Z,96589.81
2022-11-16T02:52:48.701Z,96592.66
2022-11-16T02:55:16.534Z,96598.22
2022-11-16T02:57:49.937Z,96600.03
2022-11-16T03:00:23.733Z,96606.19
2022-11-16T03:02:59.458Z,96608.47
2022-11-16T03:05:33.409Z,96608.47
2022-11-16T03:08:12.230Z,96617.94
2022-11-16T03:10:59.969Z,96605.63
2022-11-16T03:13:31.132Z,96605.00
2022-11-16T03:16:04.043Z,96604.19
2022-11-16T03:18:32.009Z,96597.19
2022-11-16T03:21:06.987Z,96604.34
2022-11-16T03:23:34.659Z,96616.47
2022-11-16T03:26:07.547Z,96624.28
2022-11-16T03:28:37.919Z,96611.16
2022-11-16T03:31:12.137Z,96620.56
2022-11-16T03:33:44.555Z,96615.66
2022-11-16T03:36:17.524Z,96617.31
2022-11-16T03:38:48.188Z,96617.72
2022-11-16T03:41:16.179Z,96618.31
2022-11-16T03:43:45.355Z,96622.84
2022-11-16T03:46:15.724Z,96626.94
2022-11-16T03:48:43.484Z,96629.19
2022-11-16T03:51:12.152Z,96624.09
2022-11-16T03:53:39.660Z,96627.78
2022-11-16T03:56:07.558Z,96625.69
2022-11-16T03:58:35.138Z,96622.41
2022-11-16T04:01:04.129Z,96622.38
2022-11-16T04:03:33.055Z,96628.13
2022-11-16T04:06:18.295Z,96618.13
2022-11-16T04:09:03.540Z,96619.75
2022-11-16T04:11:48.723Z,96626.75
2022-11-16T04:14:38.529Z,96623.03
2022-11-16T04:17:29.205Z,96617.31
2022-11-16T04:20:15.935Z,96614.00
2022-11-16T04:23:06.273Z,96620.72
2022-11-16T04:25:36.576Z,96609.50
2022-11-16T04:28:16.467Z,96622.16
2022-11-16T04:31:03.987Z,96615.94
2022-11-16T04:33:50.299Z,96614.59
2022-11-16T04:36:36.983Z,96617.47
2022-11-16T04:39:05.127Z,96603.09
2022-11-16T04:41:50.869Z,96601.66
2022-11-16T04:44:18.589Z,96608.00
2022-11-16T04:47:04.078Z,96607.88
2022-11-16T04:49:31.510Z,96610.13
2022-11-16T04:52:00.544Z,96605.59
2022-11-16T04:54:27.975Z,96600.66
2022-11-16T04:56:55.431Z,96591.22
2022-11-16T04:59:22.851Z,96589.19
2022-11-16T05:02:07.848Z,96590.81
2022-11-16T05:04:35.343Z,96591.59
2022-11-16T05:07:10.473Z,96596.56
2022-11-16T05:09:41.330Z,96590.00
2022-11-16T05:12:09.107Z,96586.69
2022-11-16T05:14:36.794Z,96587.13
2022-11-16T05:17:04.669Z,96583.84
2022-11-16T05:19:49.748Z,96577.50
2022-11-16T05:22:18.510Z,96578.13
2022-11-16T05:24:45.836Z,96578.31
2022-11-16T05:27:14.124Z,96576.06
2022-11-16T05:29:42.420Z,96579.78
2022-11-16T05:32:11.505Z,96579.13
2022-11-16T05:34:39.848Z,96575.66
2022-11-16T05:37:07.418Z,96578.13
2022-11-16T05:39:36.490Z,96580.78
2022-11-16T05:42:05.263Z,96580.75
2022-11-16T05:44:32.669Z,96584.28
2022-11-16T05:47:00.743Z,96579.94
2022-11-16T05:49:28.350Z,96578.72
2022-11-16T05:51:55.901Z,96579.13
2022-11-16T05:54:25.811Z,96571.94
2022-11-16T05:56:55.572Z,96567.78
2022-11-16T05:59:24.258Z,96562.09
2022-11-16T06:01:52.047Z,96564.78
2022-11-16T06:04:24.462Z,96561.84
2022-11-16T06:06:52.860Z,96563.34
2022-11-16T06:09:20.383Z,96574.41
2022-11-16T06:11:47.841Z,96564.78
2022-11-16T06:14:16.676Z,96562.72
2022-11-16T06:16:43.964Z,96559.84
2022-11-16T06:19:11.315Z,96565.59
2022-11-16T06:21:38.760Z,96568.06
2022-11-16T06:24:08.821Z,96567.63
2022-11-16T06:26:36.959Z,96563.34
2022-11-16T06:29:04.541Z,96562.09
2022-11-16T06:31:33.371Z,96563.53
2022-11-16T06:34:00.689Z,96571.97
2022-11-16T06:36:28.110Z,96560.66
2022-11-16T06:38:55.608Z,96562.94
2022-11-16T06:41:23.292Z,96564.13
2022-11-16T06:43:50.742Z,96573.38
2022-11-16T06:46:18.223Z,96563.94
2022-11-16T06:48:47.020Z,96574.19
2022-11-16T06:51:14.340Z,96577.06
2022-11-16T06:53:41.679Z,96577.28
2022-11-16T06:56:10.028Z,96579.41
2022-11-16T06:58:37.775Z,96574.84
2022-11-16T07:01:08.902Z,96571.97
2022-11-16T07:03:36.455Z,96575.03
2022-11-16T07:06:08.733Z,96584.47
2022-11-16T07:08:36.572Z,96600.03
2022-11-16T07:11:04.947Z,96602.72
2022-11-16T07:13:33.287Z,96606.41
2022-11-16T07:16:04.539Z,96609.31
2022-11-16T07:18:34.831Z,96608.69
2022-11-16T07:21:07.854Z,96607.66
2022-11-16T07:23:35.951Z,96606.00
2022-11-16T07:26:04.954Z,96611.56
2022-11-16T07:28:33.394Z,96615.22
2022-11-16T07:31:02.477Z,96617.31
2022-11-16T07:33:29.814Z,96620.19
2022-11-16T07:36:01.284Z,96627.78
2022-11-16T07:38:30.551Z,96626.72
2022-11-16T07:41:00.914Z,96623.28
2022-11-16T07:43:29.431Z,96627.97
2022-11-16T07:46:20.034Z,96631.47
2022-11-16T07:48:46.374Z,96630.84
2022-11-16T07:51:16.620Z,96630.03
2022-11-16T07:53:45.534Z,96627.97
2022-11-16T07:56:13.832Z,96627.97
2022-11-16T07:58:41.479Z,96629.41
2022-11-16T08:01:11.671Z,96623.47
2022-11-16T08:03:40.723Z,96628.38
2022-11-16T08:06:12.704Z,96624.28
2022-11-16T08:08:40.455Z,96624.91
2022-11-16T08:11:11.911Z,96627.75
2022-11-16T08:13:40.865Z,96626.75
2022-11-16T08:16:11.205Z,96627.16
2022-11-16T08:18:39.425Z,96631.69
2022-11-16T08:21:08.656Z,96628.38
2022-11-16T08:23:36.666Z,96631.44
2022-11-16T08:26:06.336Z,96637.41
2022-11-16T08:28:35.456Z,96629.41
2022-11-16T08:31:08.852Z,96633.72
2022-11-16T08:33:36.313Z,96637.00
2022-11-16T08:36:09.482Z,96627.56
2022-11-16T08:38:40.458Z,96632.50
2022-11-16T08:41:08.378Z,96626.75
2022-11-16T08:43:39.374Z,96631.69
2022-11-16T08:46:07.268Z,96626.75
2022-11-16T08:48:35.120Z,96633.53
2022-11-16T08:51:20.492Z,96627.16
2022-11-16T08:53:49.286Z,96631.66
2022-11-16T08:56:19.272Z,96631.06
2022-11-16T08:58:51.293Z,96626.13
2022-11-16T09:01:24.311Z,96630.84
2022-11-16T09:03:53.237Z,96642.97
2022-11-16T09:06:20.817Z,96633.50
2022-11-16T09:08:49.440Z,96642.13
2022-11-16T09:11:19.431Z,96642.75
2022-11-16T09:13:49.523Z,96653.00
2022-11-16T09:16:17.643Z,96647.50
2022-11-16T09:18:46.286Z,96640.69
2022-11-16T09:21:17.076Z,96649.09
2022-11-16T09:23:44.500Z,96649.72
2022-11-16T09:26:13.626Z,96646.06
2022-11-16T09:28:41.155Z,96649.50
2022-11-16T09:31:10.225Z,96646.63
2022-11-16T09:33:38.239Z,96655.06
2022-11-16T09:36:07.764Z,96647.88
2022-11-16T09:38:55.666Z,96651.16
2022-11-16T09:41:39.709Z,96659.56
2022-11-16T09:44:15.664Z,96657.53
2022-11-16T09:46:49.386Z,96652.38
2022-11-16T09:49:22.126Z,96659.97
2022-11-16T09:51:52.347Z,96667.19
2022-11-16T09:54:23.695Z,96663.03
2022-11-16T09:56:54.984Z,96655.84
2022-11-16T09:59:25.794Z,96666.31
2022-11-16T10:01:58.948Z,96664.06
2022-11-16T10:04:38.809Z,96659.31
2022-11-16T10:07:13.145Z,96657.47
2022-11-16T10:09:40.922Z,96667.50
2022-11-16T10:12:15.172Z,96662.16
2022-11-16T10:15:15.111Z,96650.63
2022-11-16T10:18:04.312Z,96660.91
2022-11-16T10:21:01.979Z,96656.53
2022-11-16T10:23:42.828Z,96659.97
2022-11-16T10:26:22.050Z,96660.38
2022-11-16T10:29:00.872Z,96657.06
2022-11-16T10:31:45.751Z,96657.75
2022-11-16T10:34:20.895Z,96657.34
2022-11-16T10:36:48.395Z,96647.41
2022-11-16T10:39:18.738Z,96653.31
2022-11-16T10:41:49.380Z,96639.00
2022-11-16T10:44:22.823Z,96640.75
2022-11-16T10:47:01.121Z,96650.50
2022-11-16T10:49:40.799Z,96635.31
2022-11-16T10:52:08.416Z,96640.88
2022-11-16T10:54:38.910Z,96629.63
2022-11-16T10:57:13.962Z,96632.22
2022-11-16T10:59:43.718Z,96637.72
2022-11-16T11:02:31.137Z,96628.97
2022-11-16T11:05:05.460Z,96628.53
2022-11-16T11:07:35.254Z,96630.63
2022-11-16T11:10:03.068Z,96627.72
2022-11-16T11:12:39.648Z,96629.97
2022-11-16T11:15:25.816Z,96631.81
2022-11-16T11:18:13.253Z,96622.47
2022-11-16T11:20:45.254Z,96621.56
2022-11-16T11:23:16.766Z,96628.22
2022-11-16T11:25:52.090Z,96618.34
2022-11-16T11:28:23.791Z,96622.75
2022-11-16T11:31:01.507Z,96614.56
2022-11-16T11:33:32.306Z,96616.75
2022-11-16T11:36:05.755Z,96616.91
2022-11-16T11:38:33.803Z,96613.25
2022-11-16T11:41:05.038Z,96610.53
2022-11-16T11:43:34.930Z,96604.75
2022-11-16T11:46:13.059Z,96599.84
2022-11-16T11:48:50.323Z,96600.91
2022-11-16T11:51:26.348Z,96599.41
2022-11-16T11:53:56.931Z,96602.13
2022-11-16T11:56:25.697Z,96596.94
2022-11-16T11:58:53.987Z,96597.69
2022-11-16T12:01:35.964Z,96593.66
2022-11-16T12:04:42.045Z,96587.78
2022-11-16T12:07:22.713Z,96582.16
2022-11-16T12:09:57.514Z,96590.84
2022-11-16T12:12:29.687Z,96587.97
2022-11-16T12:15:08.999Z,96583.63
2022-11-16T12:17:49.107Z,96580.63
2022-11-16T12:20:29.229Z,96576.94
2022-11-16T12:23:16.876Z,96581.38
2022-11-16T12:25:55.625Z,96578.41
2022-11-16T12:28:38.688Z,96580.44
2022-11-16T12:31:27.215Z,96577.53
2022-11-16T12:34:01.515Z,96578.28
2022-11-16T12:36:38.346Z,96582.72
2022-11-16T12:39:17.246Z,96576.84
2022-11-16T12:42:08.701Z,96579.81
2022-11-16T12:44:55.320Z,96578.94
2022-11-16T12:47:34.245Z,96573.47
2022-11-16T12:50:09.492Z,96581.00
2022-11-16T12:53:07.304Z,96578.84
2022-11-16T12:55:42.222Z,96567.13
2022-11-16T12:58:20.282Z,96565.09
2022-11-16T13:00:59.486Z,96583.78
2022-11-16T13:03:34.436Z,96566.03
2022-11-16T13:06:05.581Z,96564.16
2022-11-16T13:08:38.838Z,96566.16
2022-11-16T13:11:15.212Z,96560.97
2022-11-16T13:13:51.362Z,96566.78
2022-11-16T13:16:21.831Z,96554.03
2022-11-16T13:18:49.487Z,96567.25
2022-11-16T13:21:27.063Z,96561.88
2022-11-16T13:24:06.491Z,96554.66
2022-11-16T13:26:42.515Z,96564.41
2022-11-16T13:29:19.658Z,96556.72
2022-11-16T13:31:53.704Z,96557.72
2022-11-16T13:34:25.134Z,96550.19
2022-11-16T13:36:52.654Z,96551.81
2022-11-16T13:39:22.818Z,96545.94
2022-11-16T13:42:06.272Z,96548.53
2022-11-16T13:44:34.500Z,96542.22
2022-11-16T13:47:05.098Z,96554.28
2022-11-16T13:49:38.937Z,96544.53
2022-11-16T13:52:23.065Z,96534.41
2022-11-16T13:54:53.686Z,96535.03
2022-11-16T13:57:26.060Z,96548.88
2022-11-16T14:00:09.307Z,96547.38
2022-11-16T14:02:38.719Z,96546.25
2022-11-16T14:05:15.695Z,96548.34
2022-11-16T14:07:46.335Z,96545.50
2022-11-16T14:10:54.611Z,96546.78
2022-11-16T14:13:40.528Z,96539.69
2022-11-16T14:16:54.036Z,96541.94
2022-11-16T14:19:55.289Z,96526.91
2022-11-16T14:22:51.559Z,96532.25
2022-11-16T14:25:29.936Z,96528.25
2022-11-16T14:28:09.971Z,96537.91
2022-11-16T14:30:52.133Z,96539.72
2022-11-16T14:33:30.317Z,96524.88
2022-11-16T14:35:58.224Z,96527.03
2022-11-16T14:38:30.926Z,96532.38
2022-11-16T14:41:00.347Z,96525.00
2022-11-16T14:43:30.947Z,96529.56
2022-11-16T14:46:04.234Z,96533.13
2022-11-16T14:48:32.499Z,96526.13
2022-11-16T14:51:05.344Z,96527.28
2022-11-16T14:53:36.101Z,96524.91
2022-11-16T14:56:11.858Z,96517.34
2022-11-16T14:58:40.241Z,96516.66
2022-11-16T15:01:15.142Z,96521.13
2022-11-16T15:03:52.485Z,96520.47
2022-11-16T15:06:20.239Z,96512.50
2022-11-16T15:08:53.115Z,96519.19
2022-11-16T15:11:48.019Z,96513.66
2022-11-16T15:14:20.061Z,96524.91
2022-11-16T15:16:54.292Z,96519.75
2022-11-16T15:19:22.540Z,96526.69
2022-11-16T15:21:54.898Z,96528.28
2022-11-16T15:24:30.384Z,96525.00
2022-11-16T15:27:10.032Z,96535.09
2022-11-16T15:29:37.961Z,96534.59
2022-11-16T15:32:07.863Z,96533.13
2022-11-16T15:34:35.348Z,96531.09
2022-11-16T15:37:02.804Z,96532.31
2022-11-16T15:39:35.895Z,96531.91
2022-11-16T15:42:04.458Z,96528.63
2022-11-16T15:44:32.772Z,96526.81
2022-11-16T15:47:00.591Z,96526.75
2022-11-16T15:49:32.270Z,96533.75
2022-11-16T15:52:00.329Z,96529.53
2022-11-16T15:54:29.687Z,96533.38
2022-11-16T15:57:07.700Z,96523.88
2022-11-16T15:59:37.975Z,96520.59
2022-11-16T16:02:05.837Z,96522.00
2022-11-16T16:04:34.662Z,96519.56
2022-11-16T16:07:02.229Z,96506.59
2022-11-16T16:09:32.856Z,96519.88
2022-11-16T16:12:18.009Z,96518.06
2022-11-16T16:14:46.432Z,96526.56
2022-11-16T16:17:24.160Z,96530.13
2022-11-16T16:19:57.384Z,96528.91
2022-11-16T16:22:27.075Z,96525.81
2022-11-16T16:24:54.816Z,96523.28
2022-11-16T16:27:23.588Z,96521.81
2022-11-16T16:29:51.762Z,96527.75
2022-11-16T16:32:25.079Z,96526.94
2022-11-16T16:34:53.267Z,96522.84
2022-11-16T16:37:23.228Z,96519.56
2022-11-16T16:39:50.663Z,96520.97
2022-11-16T16:42:18.696Z,96513.97
2022-11-16T16:44:48.035Z,96507.06
2022-11-16T16:47:16.396Z,96506.63
2022-11-16T16:49:44.495Z,96496.59
2022-11-16T16:52:13.287Z,96505.66
2022-11-16T16:54:42.419Z,96505.03
2022-11-16T16:57:14.052Z,96516.34
2022-11-16T16:59:41.480Z,96514.09
2022-11-16T17:02:11.584Z,96517.72
2022-11-16T17:04:39.260Z,96524.78
2022-11-16T17:07:07.163Z,96516.63
2022-11-16T17:09:34.644Z,96513.53
2022-11-16T17:12:03.440Z,96509.22
2022-11-16T17:14:30.775Z,96504.06
2022-11-16T17:16:58.231Z,96509.50
2022-11-16T17:19:25.686Z,96508.38
2022-11-16T17:21:53.362Z,96498.69
2022-11-16T17:24:20.884Z,96499.41
2022-11-16T17:26:48.709Z,96492.41
2022-11-16T17:29:17.559Z,96493.47
2022-11-16T17:31:47.442Z,96487.75
2022-11-16T17:34:14.922Z,96478.28
2022-11-16T17:36:42.518Z,96485.88
2022-11-16T17:39:09.982Z,96486.94
2022-11-16T17:41:38.105Z,96479.31
2022-11-16T17:44:06.279Z,96476.06
2022-11-16T17:46:35.716Z,96478.38
2022-11-16T17:49:03.487Z,96478.97
2022-11-16T17:51:30.969Z,96479.78
2022-11-16T17:53:58.397Z,96466.47
2022-11-16T17:56:27.507Z,96470.63
2022-11-16T17:58:55.865Z,96479.19
2022-11-16T18:01:23.799Z,96468.25
2022-11-16T18:03:52.765Z,96465.31
2022-11-16T18:06:22.348Z,96461.78
2022-11-16T18:08:50.239Z,96465.50
2022-11-16T18:11:19.714Z,96462.44
2022-11-16T18:13:48.146Z,96466.69
2022-11-16T18:16:17.483Z,96460.13
2022-11-16T18:18:45.908Z,96459.19
2022-11-16T18:21:20.488Z,96455.66
2022-11-16T18:23:48.752Z,96461.38
2022-11-16T18:26:18.639Z,96450.13
2022-11-16T18:28:46.502Z,96448.69
2022-11-16T18:31:17.375Z,96452.56
2022-11-16T18:33:45.286Z,96445.69
2022-11-16T18:36:15.119Z,96438.47
2022-11-16T18:38:42.600Z,96439.47
2022-11-16T18:41:19.386Z,96438.91
2022-11-16T18:43:51.941Z,96430.41
2022-11-16T18:46:19.950Z,96424.78
2022-11-16T18:48:47.585Z,96417.94
2022-11-16T18:51:17.714Z,96409.69
2022-11-16T18:53:45.458Z,96420.78
2022-11-16T18:56:13.235Z,96422.81
2022-11-16T18:58:50.914Z,96416.25
2022-11-16T19:01:21.641Z,96424.28
2022-11-16T19:03:49.294Z,96422.94
2022-11-16T19:06:18.851Z,96425.34
2022-11-16T19:08:53.664Z,96414.88
2022-11-16T19:11:23.663Z,96420.00
2022-11-16T19:13:53.840Z,96420.50
2022-11-16T19:16:21.621Z,96412.38
2022-11-16T19:18:49.046Z,96414.03
2022-11-16T19:21:19.253Z,96417.34
2022-11-16T19:23:48.380Z,96408.50
2022-11-16T19:26:17.886Z,96407.22
2022-11-16T19:28:46.858Z,96406.78
2022-11-16T19:31:16.757Z,96406.63
2022-11-16T19:33:45.242Z,96402.53
2022-11-16T19:36:14.429Z,96400.44
2022-11-16T19:38:43.960Z,96397.75
2022-11-16T19:41:13.050Z,96400.22
2022-11-16T19:43:40.830Z,96401.25
2022-11-16T19:46:09.898Z,96404.94
2022-11-16T19:48:37.766Z,96406.78
2022-11-16T19:51:06.763Z,96399.19
2022-11-16T19:53:34.638Z,96394.84
2022-11-16T19:56:04.184Z,96398.88
2022-11-16T19:58:32.002Z,96388.59
2022-11-16T20:01:03.803Z,96388.41
2022-11-16T20:03:31.918Z,96387.91
2022-11-16T20:06:10.515Z,96378.88
2022-11-16T20:08:38.072Z,96391.00
2022-11-16T20:11:14.426Z,96379.28
2022-11-16T20:13:42.869Z,96395.09
2022-11-16T20:16:12.274Z,96393.88
2022-11-16T20:18:40.945Z,96389.38
2022-11-16T20:21:11.265Z,96387.94
2022-11-16T20:23:38.692Z,96388.75
2022-11-16T20:26:06.903Z,96393.50
2022-11-16T20:28:36.471Z,96387.34
2022-11-16T20:31:05.212Z,96388.59
2022-11-16T20:33:33.851Z,96393.53
2022-11-16T20:36:02.763Z,96392.28
2022-11-16T20:38:30.396Z,96399.06
2022-11-16T20:40:57.853Z,96399.28
2022-11-16T20:43:25.297Z,96399.06
2022-11-16T20:45:54.718Z,96400.47
2022-11-16T20:48:22.211Z,96398.84
2022-11-16T20:50:53.744Z,96391.66
2022-11-16T20:53:22.162Z,96393.53
2022-11-16T20:55:50.133Z,96384.09
2022-11-16T20:58:22.556Z,96384.81
2022-11-16T21:00:50.881Z,96379.38
2022-11-16T21:03:19.692Z,96380.34
2022-11-16T21:05:50.728Z,96371.97
2022-11-16T21:08:18.389Z,96371.13
2022-11-16T21:10:48.106Z,96368.47
2022-11-16T21:13:31.594Z,96368.06
2022-11-16T21:16:01.092Z,96377.53
2022-11-16T21:18:30.946Z,96384.47
2022-11-16T21:20:59.754Z,96380.44
2022-11-16T21:23:28.647Z,96384.91
2022-11-16T21:25:56.445Z,96391.47
2022-11-16T21:28:25.599Z,96395.38
2022-11-16T21:30:57.595Z,96396.28
2022-11-16T21:33:25.536Z,96388.19
2022-11-16T21:35:54.815Z,96387.94
2022-11-16T21:38:23.487Z,96387.28
2022-11-16T21:40:51.105Z,96378.28
2022-11-16T21:43:18.636Z,96377.81
2022-11-16T21:45:47.279Z,96377.78
2022-11-16T21:48:15.171Z,96361.16
2022-11-16T21:50:42.670Z,96356.75
2022-11-16T21:53:11.747Z,96354.88
2022-11-16T21:55:39.171Z,96350.47
2022-11-16T21:58:06.591Z,96353.75
2022-11-16T22:00:34.027Z,96343.66
2022-11-16T22:03:01.447Z,96341.81
2022-11-16T22:05:46.761Z,96339.34
2022-11-16T22:08:15.529Z,96334.13
2022-11-16T22:10:43.128Z,96338.63
2022-11-16T22:13:10.572Z,96337.75
2022-11-16T22:15:38.346Z,96334.91
2022-11-16T22:18:06.104Z,96333.50
2022-11-16T22:20:33.547Z,96335.56
2022-11-16T22:23:00.973Z,96328.84
2022-11-16T22:25:29.967Z,96329.34
2022-11-16T22:30:51.193Z,96317.16
2022-11-16T22:33:19.292Z,96315.00
2022-11-16T22:35:47.959Z,96313.78
2022-11-16T22:38:15.439Z,96308.41
2022-11-16T22:40:49.552Z,96312.53
2022-11-16T22:43:16.975Z,96312.59
2022-11-16T22:45:44.383Z,96306.41
2022-11-16T22:48:11.867Z,96302.09
2022-11-16T22:50:39.319Z,96308.78
2022-11-16T22:53:07.783Z,96306.69
2022-11-16T22:55:36.594Z,96292.78
2022-11-16T22:58:05.801Z,96294.59
2022-11-16T23:00:38.956Z,96296.84
2022-11-16T23:03:09.373Z,96297.81
2022-11-16T23:05:36.823Z,96289.75
2022-11-16T23:08:04.291Z,96294.41
2022-11-16T23:10:51.721Z,96288.97
2022-11-16T23:13:43.463Z,96288.63
2022-11-16T23:16:10.936Z,96290.03
2022-11-16T23:18:38.356Z,96293.09
2022-11-16T23:21:23.496Z,96294.34
2022-11-16T23:24:20.237Z,96293.81
2022-11-16T23:27:05.326Z,96288.78
2022-11-16T23:29:34.141Z,96283.53
2022-11-16T23:32:01.424Z,96288.63
2022-11-16T23:34:28.740Z,96274.41
2022-11-16T23:36:56.039Z,96280.22
2022-11-16T23:39:23.339Z,96271.63
2022-11-16T23:42:08.476Z,96269.78
2022-11-16T23:44:37.235Z,96275.72
2022-11-16T23:47:04.572Z,96274.53
2022-11-16T23:49:31.885Z,96272.59
2022-11-16T23:51:59.175Z,96267.38
2022-11-16T23:54:26.623Z,96261.44
2022-11-16T23:56:54.104Z,96259.59
2022-11-16T23:59:21.549Z,96254.28
